Time;durP1;ratioP1;P1;durP2;ratioP2;P2;SDS_P1;SDS_P2;PMS_P1;PMS_P2;Temp;Humidity;BMP_temperature;BMP_pressure;BME280_temperature;BME280_humidity;BME280_pressure;Samples;Min_cycle;Max_cycle;Signal;HPM_P1;HPM_P2
2023/03/28 00:00:30;;;;;;;;;;;;;;;-144.99;89.34;52497.00;5032490;28;20572;-79
2023/03/28 00:02:56;;;;;;;;;;;;;;;-144.99;89.16;52497.00;5028677;28;20004;-80
2023/03/28 00:05:24;;;;;;;;;;;;;;;-144.99;89.04;52458.28;5031517;28;20324;-79
2023/03/28 00:07:51;;;;;;;;;;;;;;;-144.99;88.97;52484.78;5028879;28;20012;-79
2023/03/28 00:10:17;;;;;;;;;;;;;;;-144.99;88.75;52488.84;5030178;28;19954;-76
2023/03/28 00:12:44;;;;;;;;;;;;;;;-144.99;88.69;52501.09;5026338;28;20002;-79
2023/03/28 00:15:11;;;;;;;;;;;;;;;-144.99;88.62;52541.84;5025942;28;19946;-78
2023/03/28 00:17:40;;;;;;;;;;;;;;;-144.99;88.44;52484.78;5024233;28;19947;-78
2023/03/28 00:20:09;;;;;;;;;;;;;;;-144.99;88.32;52505.16;5024886;28;19946;-80
2023/03/28 00:22:38;;;;;;;;;;;;;;;-144.99;88.22;52499.06;5024089;28;19963;-76
2023/03/28 00:25:05;;;;;;;;;;;;;;;-144.99;89.80;52517.41;5021739;28;19979;-77
2023/03/28 00:27:32;;;;;;;;;;;;;;;-144.99;90.48;52509.25;5022962;28;19961;-77
2023/03/28 00:29:58;;;;;;;;;;;;;;;-144.99;90.18;52517.41;5026083;28;20297;-78
2023/03/28 00:32:25;;;;;;;;;;;;;;;-144.99;89.44;52497.00;5029571;28;20373;-76
2023/03/28 00:34:51;;;;;;;;;;;;;;;-144.99;90.16;52517.41;5024447;28;19956;-79
2023/03/28 00:37:18;;;;;;;;;;;;;;;-144.99;88.53;52468.47;5021936;28;19950;-79
2023/03/28 00:39:48;;;;;;;;;;;;;;;-144.99;88.39;52492.94;5020978;28;19952;-78
2023/03/28 00:42:15;;;;;;;;;;;;;;;-144.99;88.02;52492.94;5023108;28;20099;-80
2023/03/28 00:44:46;;;;;;;;;;;;;;;-144.99;87.94;52515.34;5030294;28;19977;-79
2023/03/28 00:47:17;;;;;;;;;;;;;;;-144.99;88.15;52486.81;5025632;28;19983;-81
2023/03/28 00:49:45;;;;;;;;;;;;;;;-144.99;88.11;52517.41;5019999;28;20024;-78
2023/03/28 00:52:14;;;;;;;;;;;;;;;-144.99;88.25;52497.00;5023812;28;19972;-79
2023/03/28 00:54:41;;;;;;;;;;;;;;;-144.99;88.28;52499.06;5023697;28;19965;-79
2023/03/28 00:57:09;;;;;;;;;;;;;;;-144.99;88.41;52484.78;5023994;28;20048;-76
2023/03/28 00:59:37;;;;;;;;;;;;;;;-144.99;88.55;52513.31;5019112;28;20191;-78
2023/03/28 01:02:04;;;;;;;;;;;;;;;-144.99;88.97;52501.09;5020076;28;20001;-80
2023/03/28 01:04:35;;;;;;;;;;;;;;;-144.99;88.87;52521.47;5025477;28;19982;-79
2023/03/28 01:07:03;;;;;;;;;;;;;;;-144.99;88.72;52499.06;5022760;28;19925;-78
2023/03/28 01:09:29;;;;;;;;;;;;;;;-144.99;88.78;52484.78;5017947;28;20040;-79
2023/03/28 01:11:57;;;;;;;;;;;;;;;-144.99;88.97;52517.41;5025357;28;20006;-80
2023/03/28 01:14:26;;;;;;;;;;;;;;;-144.99;88.93;52533.69;5025991;28;20289;-78
2023/03/28 01:16:55;;;;;;;;;;;;;;;-144.99;89.09;52523.50;5019066;28;20000;-78
2023/03/28 01:19:26;;;;;;;;;;;;;;;-144.99;89.30;52480.72;5025243;28;19995;-79
2023/03/28 01:22:08;;;;;;;;;;;;;;;-144.99;89.40;52501.09;5024814;28;19972;-77
2023/03/28 01:24:51;;;;;;;;;;;;;;;-144.99;89.28;52497.00;5026327;28;20039;-77
2023/03/28 01:27:19;;;;;;;;;;;;;;;-144.99;90.05;52497.00;5028151;28;19962;-76
2023/03/28 01:30:03;;;;;;;;;;;;;;;-144.99;91.03;52505.16;5022783;28;19948;-77
2023/03/28 01:32:50;;;;;;;;;;;;;;;-144.99;91.04;52497.00;5020723;28;20725;-77
2023/03/28 01:35:31;;;;;;;;;;;;;;;-144.99;91.78;52501.09;5026112;28;20041;-77
2023/03/28 01:38:02;;;;;;;;;;;;;;;-144.99;91.74;52497.00;5020439;28;20293;-76
2023/03/28 01:40:36;;;;;;;;;;;;;;;-144.99;92.92;52552.03;5018563;28;19975;-75
2023/03/28 01:43:12;;;;;;;;;;;;;;;-144.99;92.81;52517.41;5028256;28;20047;-76
2023/03/28 01:45:46;;;;;;;;;;;;;;;-144.99;92.84;52509.25;5025822;28;19981;-77
2023/03/28 01:48:17;;;;;;;;;;;;;;;-144.99;92.83;52488.84;5022935;28;19975;-79
2023/03/28 01:50:47;;;;;;;;;;;;;;;-144.99;92.87;52497.00;5037732;23;20487;-72
2023/03/28 01:53:19;;;;;;;;;;;;;;;-144.99;93.31;52521.47;5043710;28;20063;-72
2023/03/28 01:55:50;;;;;;;;;;;;;;;-144.99;92.56;52523.50;5053063;28;19937;-74
2023/03/28 01:58:21;;;;;;;;;;;;;;;-144.99;93.28;52511.28;5060276;28;19946;-74
2023/03/28 02:00:49;;;;;;;;;;;;;;;-144.99;93.26;52541.84;5063226;28;20007;-72
2023/03/28 02:03:18;;;;;;;;;;;;;;;-144.99;91.31;52505.16;5062363;28;19941;-73
2023/03/28 02:05:45;;;;;;;;;;;;;;;-144.99;91.18;52486.81;5063513;28;19942;-74
2023/03/28 02:08:13;;;;;;;;;;;;;;;-144.99;90.77;52456.25;5059574;28;19944;-74
2023/03/28 02:10:42;;;;;;;;;;;;;;;-144.99;90.76;52460.31;5056573;28;19986;-74
2023/03/28 02:13:10;;;;;;;;;;;;;;;-144.99;90.88;52501.09;5055299;28;19966;-74
2023/03/28 02:15:38;;;;;;;;;;;;;;;-144.99;90.60;52525.56;5058688;28;19969;-73
2023/03/28 02:18:08;;;;;;;;;;;;;;;-144.99;90.47;52525.56;5042291;28;20367;-72
2023/03/28 02:20:37;;;;;;;;;;;;;;;-144.99;90.56;52505.16;5041784;28;20422;-72
2023/03/28 02:23:07;;;;;;;;;;;;;;;-144.99;90.60;52505.16;5040190;28;19970;-72
2023/03/28 02:25:35;;;;;;;;;;;;;;;-144.99;90.52;52497.00;5042894;28;20041;-72
2023/03/28 02:28:04;;;;;;;;;;;;;;;-144.99;90.62;52488.84;5041556;28;20437;-71
2023/03/28 02:30:31;;;;;;;;;;;;;;;-144.99;90.58;52525.56;5056217;28;19958;-73
2023/03/28 02:32:59;;;;;;;;;;;;;;;-144.99;90.56;52521.47;5055484;28;19957;-72
2023/03/28 02:35:27;;;;;;;;;;;;;;;-144.99;90.39;52545.94;5056820;28;19960;-73
2023/03/28 02:38:00;;;;;;;;;;;;;;;-144.99;90.48;52517.41;5048197;28;19941;-72
2023/03/28 02:40:39;;;;;;;;;;;;;;;-144.99;91.13;52499.06;5051031;28;19958;-74
2023/03/28 02:43:16;;;;;;;;;;;;;;;-144.99;91.39;52497.00;5056192;28;19972;-73
2023/03/28 02:46:03;;;;;;;;;;;;;;;-144.99;91.41;52543.91;5048550;28;20027;-73
2023/03/28 02:48:35;;;;;;;;;;;;;;;-144.99;91.55;52525.56;5039991;28;20035;-71
2023/03/28 02:51:08;;;;;;;;;;;;;;;-144.99;91.69;52484.78;5051316;28;19962;-74
2023/03/28 02:53:43;;;;;;;;;;;;;;;-144.99;91.47;52488.84;5049080;28;19977;-75
2023/03/28 02:56:15;;;;;;;;;;;;;;;-144.99;91.57;52550.00;5049349;28;20034;-74
2023/03/28 02:58:47;;;;;;;;;;;;;;;-144.99;91.68;52497.00;5048228;28;19940;-73
2023/03/28 03:01:14;;;;;;;;;;;;;;;-144.99;91.55;52472.56;5051009;28;20117;-72
2023/03/28 03:03:40;;;;;;;;;;;;;;;-144.99;92.04;52478.66;5053228;28;21554;-72
2023/03/28 03:06:07;;;;;;;;;;;;;;;-144.99;91.84;52509.25;5052040;28;19945;-73
2023/03/28 03:08:34;;;;;;;;;;;;;;;-144.99;91.81;52525.56;5045252;28;19984;-72
2023/03/28 03:11:00;;;;;;;;;;;;;;;-144.99;91.95;52472.56;5047056;28;19957;-71
2023/03/28 03:13:27;;;;;;;;;;;;;;;-144.99;93.22;52525.56;5055376;28;19962;-73
2023/03/28 03:15:55;;;;;;;;;;;;;;;-144.99;92.77;52497.00;5052063;28;19996;-73
2023/03/28 03:18:21;;;;;;;;;;;;;;;-144.99;92.40;52497.00;5047849;28;19992;-73
2023/03/28 03:20:49;;;;;;;;;;;;;;;-144.99;92.91;52484.78;5059027;28;19954;-72
2023/03/28 03:23:15;;;;;;;;;;;;;;;-144.99;93.10;52517.41;5046510;28;19946;-73
2023/03/28 03:25:43;;;;;;;;;;;;;;;-144.99;92.93;52488.84;5050443;28;19986;-73
2023/03/28 03:28:10;;;;;;;;;;;;;;;-144.99;93.52;52529.63;5052412;28;19949;-74
2023/03/28 03:30:36;;;;;;;;;;;;;;;-144.99;94.97;52509.25;5047427;28;19955;-73
2023/03/28 03:33:04;;;;;;;;;;;;;;;-144.99;96.05;52480.72;5052484;28;20474;-72
2023/03/28 03:35:32;;;;;;;;;;;;;;;-144.99;94.13;52513.31;5052493;28;19950;-73
2023/03/28 03:37:58;;;;;;;;;;;;;;;-144.99;93.42;52444.03;5050597;28;19946;-74
2023/03/28 03:40:25;;;;;;;;;;;;;;;-144.99;94.81;52513.31;5054518;28;20000;-74
2023/03/28 03:42:51;;;;;;;;;;;;;;;-144.99;96.47;52521.47;5050592;28;19944;-72
2023/03/28 03:45:18;;;;;;;;;;;;;;;-144.99;96.42;52509.25;5054685;28;19993;-73
2023/03/28 03:47:44;;;;;;;;;;;;;;;-144.99;95.30;52505.16;5052456;28;20380;-73
2023/03/28 03:50:12;;;;;;;;;;;;;;;-144.99;95.65;52501.09;5051751;28;20024;-71
2023/03/28 03:52:39;;;;;;;;;;;;;;;-144.99;96.04;52513.31;5063168;28;20586;-73
2023/03/28 03:55:06;;;;;;;;;;;;;;;-144.99;94.38;52521.47;5067881;28;19943;-73
2023/03/28 03:57:32;;;;;;;;;;;;;;;-144.99;95.73;52492.94;5067959;28;19941;-74
2023/03/28 03:59:59;;;;;;;;;;;;;;;-144.99;97.03;52497.00;5069680;28;19962;-72
2023/03/28 04:02:26;;;;;;;;;;;;;;;-144.99;97.13;52505.16;5070073;28;19968;-74
2023/03/28 04:04:53;;;;;;;;;;;;;;;-144.99;96.80;52529.63;5069167;28;19945;-74
2023/03/28 04:07:21;;;;;;;;;;;;;;;-144.99;96.54;52492.94;5068455;28;19965;-73
2023/03/28 04:09:47;;;;;;;;;;;;;;;-144.99;97.28;52543.91;5066397;28;20338;-72
2023/03/28 04:12:14;;;;;;;;;;;;;;;-144.99;97.53;52541.84;5069580;28;20054;-73
2023/03/28 04:14:40;;;;;;;;;;;;;;;-144.99;96.83;52509.25;5069977;28;19959;-73
2023/03/28 04:17:07;;;;;;;;;;;;;;;-144.99;96.80;52505.16;5069133;28;20023;-73
2023/03/28 04:19:33;;;;;;;;;;;;;;;-144.99;95.35;52513.31;5068352;28;19929;-72
2023/03/28 04:22:03;;;;;;;;;;;;;;;-144.99;97.58;52550.00;5070192;28;19973;-73
2023/03/28 04:24:30;;;;;;;;;;;;;;;-144.99;98.98;52509.25;5068908;28;20050;-73
2023/03/28 04:26:57;;;;;;;;;;;;;;;-144.99;100.00;52511.28;5073492;28;20024;-71
2023/03/28 04:29:29;;;;;;;;;;;;;;;-144.99;100.00;52550.00;5072123;28;19935;-72
2023/03/28 04:31:55;;;;;;;;;;;;;;;-144.99;100.00;52476.63;5069663;28;19924;-71
2023/03/28 04:34:24;;;;;;;;;;;;;;;-144.99;100.00;52507.19;5072798;28;19952;-72
2023/03/28 04:36:51;;;;;;;;;;;;;;;-144.99;100.00;52501.09;5070651;28;19942;-72
2023/03/28 04:39:20;;;;;;;;;;;;;;;-144.99;99.75;52497.00;5071976;28;19975;-72
2023/03/28 04:41:48;;;;;;;;;;;;;;;-144.99;98.81;52509.25;5070768;28;19970;-71
2023/03/28 04:44:15;;;;;;;;;;;;;;;-144.99;99.27;52488.84;5069659;28;19951;-72
2023/03/28 04:46:41;;;;;;;;;;;;;;;-144.99;99.25;52501.09;5068002;28;19946;-72
2023/03/28 04:49:08;;;;;;;;;;;;;;;-144.99;98.94;52497.00;5074964;28;19939;-73
2023/03/28 04:51:34;;;;;;;;;;;;;;;-144.99;99.00;52480.72;5071460;28;19963;-73
2023/03/28 04:54:01;;;;;;;;;;;;;;;-144.99;100.00;52468.47;5070768;28;19951;-74
2023/03/28 04:56:27;;;;;;;;;;;;;;;-144.99;100.00;52525.56;5061296;28;19953;-72
2023/03/28 04:58:56;;;;;;;;;;;;;;;-144.99;100.00;52521.47;5057336;28;19951;-72
2023/03/28 05:01:24;;;;;;;;;;;;;;;-144.99;100.00;52509.25;5046067;28;19958;-72
2023/03/28 05:03:51;;;;;;;;;;;;;;;-144.99;100.00;52464.41;5051477;28;19967;-72
2023/03/28 05:06:17;;;;;;;;;;;;;;;-144.99;99.94;52513.31;5049687;28;19941;-72
2023/03/28 05:08:44;;;;;;;;;;;;;;;-144.99;100.00;52478.66;5041701;28;20313;-72
2023/03/28 05:11:11;;;;;;;;;;;;;;;-144.99;100.00;52513.31;5045468;28;20105;-71
2023/03/28 05:13:37;;;;;;;;;;;;;;;-144.99;100.00;52488.84;5053882;28;19960;-72
2023/03/28 05:16:05;;;;;;;;;;;;;;;-144.99;100.00;52501.09;5048042;28;19942;-70
2023/03/28 05:18:32;;;;;;;;;;;;;;;-144.99;100.00;52533.69;5042828;28;19994;-70
2023/03/28 05:20:58;;;;;;;;;;;;;;;-144.99;100.00;52505.16;5049010;28;19987;-70
2023/03/28 05:23:25;;;;;;;;;;;;;;;-144.99;100.00;52476.63;5043823;28;20028;-70
2023/03/28 05:25:52;;;;;;;;;;;;;;;-144.99;100.00;52468.47;5041798;28;19947;-72
2023/03/28 05:28:18;;;;;;;;;;;;;;;-144.99;100.00;52492.94;5043792;28;19964;-71
2023/03/28 05:30:45;;;;;;;;;;;;;;;-144.99;100.00;52470.50;5045646;28;19988;-72
2023/03/28 05:33:12;;;;;;;;;;;;;;;-144.99;100.00;52497.00;4686134;28;9999979;-72
2023/03/28 05:35:39;;;;;;;;;;;;;;;-144.99;100.00;52484.78;5033482;28;19955;-71
2023/03/28 05:38:06;;;;;;;;;;;;;;;-144.99;100.00;52527.59;5040305;28;19976;-71
2023/03/28 05:40:32;;;;;;;;;;;;;;;-144.99;100.00;52484.78;5037001;28;19961;-71
2023/03/28 05:42:59;;;;;;;;;;;;;;;-144.99;100.00;52509.25;5034343;28;19993;-73
2023/03/28 05:45:25;;;;;;;;;;;;;;;-144.99;100.00;52492.94;5028008;28;19991;-73
2023/03/28 05:47:53;;;;;;;;;;;;;;;-144.99;100.00;52505.16;5034799;28;20501;-73
2023/03/28 05:50:21;;;;;;;;;;;;;;;-144.99;100.00;52472.56;5042334;28;20070;-73
2023/03/28 05:52:47;;;;;;;;;;;;;;;-144.99;100.00;52480.72;5036847;28;19992;-73
2023/03/28 05:55:14;;;;;;;;;;;;;;;-144.99;100.00;52466.44;5041432;28;19970;-73
2023/03/28 05:57:40;;;;;;;;;;;;;;;-144.99;100.00;52476.63;5039599;28;19997;-73
2023/03/28 06:00:13;;;;;;;;;;;;;;;-144.99;100.00;52476.63;5033769;28;20080;-73
2023/03/28 06:02:40;;;;;;;;;;;;;;;-144.99;100.00;52444.03;5043442;28;19947;-73
2023/03/28 06:05:08;;;;;;;;;;;;;;;-144.99;100.00;52505.16;5047057;28;19954;-73
2023/03/28 06:07:37;;;;;;;;;;;;;;;-144.99;100.00;52452.16;5045686;28;20207;-74
2023/03/28 06:10:04;;;;;;;;;;;;;;;-144.99;100.00;52452.16;5036315;28;19929;-74
2023/03/28 06:12:31;;;;;;;;;;;;;;;-144.99;100.00;52492.94;5046797;28;20063;-73
2023/03/28 06:14:57;;;;;;;;;;;;;;;-144.99;100.00;52480.72;5044311;28;20449;-74
2023/03/28 06:17:24;;;;;;;;;;;;;;;-144.99;100.00;52476.63;5044161;28;19986;-73
2023/03/28 06:19:50;;;;;;;;;;;;;;;-144.99;100.00;52529.63;5045431;28;20018;-74
2023/03/28 06:22:17;;;;;;;;;;;;;;;-144.99;100.00;52464.41;5040129;28;19925;-73
2023/03/28 06:24:45;;;;;;;;;;;;;;;-144.99;100.00;52466.44;5044141;28;20382;-73
2023/03/28 06:27:11;;;;;;;;;;;;;;;-144.99;100.00;52456.25;5047150;28;20305;-73
2023/03/28 06:29:37;;;;;;;;;;;;;;;-144.99;99.35;52472.56;5044208;28;20009;-74
2023/03/28 06:32:04;;;;;;;;;;;;;;;-144.99;99.23;52374.72;5043843;28;20004;-73
2023/03/28 06:34:30;;;;;;;;;;;;;;;-144.99;98.87;52468.47;5045013;28;19929;-75
2023/03/28 06:36:58;;;;;;;;;;;;;;;-144.99;98.26;52448.09;5066600;28;19913;-73
2023/03/28 06:39:25;;;;;;;;;;;;;;;-144.99;98.04;52476.63;5062139;28;20239;-73
2023/03/28 06:41:52;;;;;;;;;;;;;;;-144.99;96.28;52441.97;5053378;28;20291;-73
2023/03/28 06:44:19;;;;;;;;;;;;;;;-144.99;96.29;52452.16;5057109;28;19936;-73
2023/03/28 06:46:45;;;;;;;;;;;;;;;-144.99;95.56;52431.78;5058404;28;19924;-72
2023/03/28 06:49:12;;;;;;;;;;;;;;;-144.99;94.69;52444.03;5049800;28;19992;-72
2023/03/28 06:51:38;;;;;;;;;;;;;;;-144.99;93.59;52464.41;5041129;28;19933;-72
2023/03/28 06:54:05;;;;;;;;;;;;;;;-144.99;92.82;52435.88;5040542;28;20024;-73
2023/03/28 06:56:32;;;;;;;;;;;;;;;-144.99;92.52;52441.97;5037437;28;20380;-72
2023/03/28 06:59:00;;;;;;;;;;;;;;;-144.99;92.05;52431.78;5045575;28;19928;-72
2023/03/28 07:01:26;;;;;;;;;;;;;;;-144.99;92.18;52460.31;5050252;28;19925;-73
2023/03/28 07:03:53;;;;;;;;;;;;;;;-144.99;91.95;52435.88;5040759;28;19924;-73
2023/03/28 07:06:19;;;;;;;;;;;;;;;-144.99;91.66;52439.94;4698296;28;9999972;-73
2023/03/28 07:08:46;;;;;;;;;;;;;;;-144.99;90.83;52452.16;5032374;28;20035;-73
2023/03/28 07:11:12;;;;;;;;;;;;;;;-144.99;90.49;52441.97;5045563;28;20034;-71
2023/03/28 07:13:39;;;;;;;;;;;;;;;-144.99;90.16;52439.94;5038451;28;20018;-72
2023/03/28 07:16:08;;;;;;;;;;;;;;;-144.99;88.71;52444.03;5045337;28;19983;-72
2023/03/28 07:18:34;;;;;;;;;;;;;;;-144.99;87.84;52439.94;5039959;28;19940;-71
2023/03/28 07:21:04;;;;;;;;;;;;;;;-144.99;87.14;52435.88;5040932;28;20225;-72
2023/03/28 07:23:31;;;;;;;;;;;;;;;-144.99;86.77;52466.44;5034503;28;20236;-73
2023/03/28 07:25:57;;;;;;;;;;;;;;;-144.99;86.85;52411.41;5043824;28;19933;-72
2023/03/28 07:28:24;;;;;;;;;;;;;;;-144.99;86.85;52456.25;5046982;28;19933;-73
2023/03/28 07:30:52;;;;;;;;;;;;;;;-144.99;86.66;52409.38;5060588;28;19928;-73
2023/03/28 07:33:20;;;;;;;;;;;;;;;-144.99;86.09;52427.72;5062833;28;19925;-73
2023/03/28 07:35:47;;;;;;;;;;;;;;;-144.99;84.65;52384.91;5061665;28;19951;-73
2023/03/28 07:38:13;;;;;;;;;;;;;;;-144.99;84.12;52437.91;5055706;28;19929;-73
2023/03/28 07:40:40;;;;;;;;;;;;;;;-144.99;83.36;52399.19;5043091;28;19929;-72
2023/03/28 07:43:06;;;;;;;;;;;;;;;-144.99;81.57;52419.56;5039848;28;19952;-72
2023/03/28 07:45:33;;;;;;;;;;;;;;;-144.99;80.20;52384.91;5039070;28;19929;-72
2023/03/28 07:47:59;;;;;;;;;;;;;;;-144.99;78.68;52368.59;5036188;28;19936;-72
2023/03/28 07:50:27;;;;;;;;;;;;;;;-144.99;77.97;52362.50;5039097;28;20429;-72
2023/03/28 07:52:56;;;;;;;;;;;;;;;-144.99;77.09;52391.03;5046198;23;19972;-66
2023/03/28 07:55:23;;;;;;;;;;;;;;;-144.99;76.21;52403.25;5036459;28;20381;-65
2023/03/28 07:57:50;;;;;;;;;;;;;;;-144.99;75.44;52346.19;5043891;28;20549;-65
2023/03/28 08:00:17;;;;;;;;;;;;;;;-144.99;75.44;52382.88;5037177;28;20409;-65
2023/03/28 08:02:43;;;;;;;;;;;;;;;-144.99;74.70;52350.25;5035857;28;19961;-65
2023/03/28 08:05:10;;;;;;;;;;;;;;;-144.99;73.98;52360.44;5035560;28;20331;-66
2023/03/28 08:07:40;;;;;;;;;;;;;;;-144.99;74.44;52376.75;5043786;28;19971;-67
2023/03/28 08:10:08;;;;;;;;;;;;;;;-144.99;74.07;52423.63;5038901;28;20481;-66
2023/03/28 08:12:36;;;;;;;;;;;;;;;-144.99;74.34;52419.56;5029509;28;19953;-66
2023/03/28 08:15:02;;;;;;;;;;;;;;;-144.99;74.18;52403.25;5036311;28;20031;-66
2023/03/28 08:17:29;;;;;;;;;;;;;;;-144.99;74.39;52391.03;5035204;28;19924;-66
2023/03/28 08:19:56;;;;;;;;;;;;;;;-144.99;74.41;52382.88;5030689;28;19929;-66
2023/03/28 08:22:23;;;;;;;;;;;;;;;-144.99;75.18;52362.50;5033940;28;19987;-66
2023/03/28 08:24:51;;;;;;;;;;;;;;;-144.99;74.99;52413.44;5027977;28;20000;-67
2023/03/28 08:27:18;;;;;;;;;;;;;;;-144.99;74.20;52378.78;5040375;28;20346;-66
2023/03/28 08:29:45;;;;;;;;;;;;;;;-144.99;73.81;52427.72;5039014;28;19929;-68
2023/03/28 08:32:11;;;;;;;;;;;;;;;-144.99;73.92;52403.25;5043706;28;20022;-65
2023/03/28 08:34:39;;;;;;;;;;;;;;;-144.99;74.21;52407.31;5029500;28;20311;-67
2023/03/28 08:37:05;;;;;;;;;;;;;;;-144.99;74.23;52403.25;5035385;28;19926;-67
2023/03/28 08:39:33;;;;;;;;;;;;;;;-144.99;72.40;52391.03;5037361;28;19924;-67
2023/03/28 08:42:12;;;;;;;;;;;;;;;-144.99;71.86;52415.47;5036381;28;20028;-65
2023/03/28 08:44:47;;;;;;;;;;;;;;;-144.99;71.63;52407.31;5040255;28;19956;-66
2023/03/28 08:47:16;;;;;;;;;;;;;;;-144.99;71.21;52397.13;5043955;28;19936;-66
2023/03/28 08:49:45;;;;;;;;;;;;;;;-144.99;70.84;52419.56;5031893;28;20306;-66
2023/03/28 08:52:12;;;;;;;;;;;;;;;-144.99;71.41;52374.72;5044071;28;20323;-66
2023/03/28 08:54:41;;;;;;;;;;;;;;;-144.99;70.75;52391.03;5044974;28;19932;-66
2023/03/28 08:57:13;;;;;;;;;;;;;;;-144.99;70.67;52399.19;5038792;28;19943;-67
2023/03/28 08:59:42;;;;;;;;;;;;;;;-144.99;70.84;52419.56;5044951;28;19940;-66
2023/03/28 09:02:15;;;;;;;;;;;;;;;-144.99;71.56;52407.31;5026945;28;20369;-66
2023/03/28 09:04:41;;;;;;;;;;;;;;;-144.99;72.34;52386.94;5037939;28;19924;-65
2023/03/28 09:07:17;;;;;;;;;;;;;;;-144.99;72.74;52386.94;5038412;28;19925;-67
2023/03/28 09:09:49;;;;;;;;;;;;;;;-144.99;73.02;52378.78;5046005;28;20293;-66
2023/03/28 09:12:28;;;;;;;;;;;;;;;-144.99;72.66;52407.31;5037030;28;19929;-66
2023/03/28 09:15:04;;;;;;;;;;;;;;;-144.99;72.06;52350.25;5040649;28;19990;-67
2023/03/28 09:17:37;;;;;;;;;;;;;;;-144.99;70.91;52354.34;5036528;28;20027;-67
2023/03/28 09:20:10;;;;;;;;;;;;;;;-144.99;69.59;52285.03;5030328;28;19990;-67
2023/03/28 09:22:42;;;;;;;;;;;;;;;-144.99;67.70;52338.03;5037687;28;20443;-66
2023/03/28 09:25:15;;;;;;;;;;;;;;;-144.99;67.61;52346.19;5030611;28;19929;-66
2023/03/28 09:27:48;;;;;;;;;;;;;;;-144.99;68.64;52378.78;5035977;28;20459;-66
2023/03/28 09:30:19;;;;;;;;;;;;;;;-144.99;68.51;52382.88;5032511;28;21402;-67
2023/03/28 09:32:46;;;;;;;;;;;;;;;-144.99;69.07;52364.53;5033651;28;19939;-66
2023/03/28 09:35:15;;;;;;;;;;;;;;;-144.99;69.71;52407.31;5027692;28;19933;-67
2023/03/28 09:37:42;;;;;;;;;;;;;;;-144.99;70.60;52384.91;5032357;28;20393;-66
2023/03/28 09:40:15;;;;;;;;;;;;;;;-144.99;72.43;52395.09;5042202;28;20003;-67
2023/03/28 09:42:45;;;;;;;;;;;;;;;-144.99;74.94;52435.88;5030714;28;19933;-66
2023/03/28 09:45:25;;;;;;;;;;;;;;;-144.99;75.65;52458.28;5035220;28;19932;-66
2023/03/28 09:47:52;;;;;;;;;;;;;;;-144.99;76.24;52427.72;5036384;28;19928;-66
2023/03/28 09:50:19;;;;;;;;;;;;;;;-144.99;76.29;52437.91;5043207;28;20352;-66
2023/03/28 09:52:46;;;;;;;;;;;;;;;-144.99;76.00;52421.59;5044366;28;20237;-66
2023/03/28 09:55:17;;;;;;;;;;;;;;;-144.99;76.38;52456.25;5047753;28;19971;-68
2023/03/28 09:58:00;;;;;;;;;;;;;;;-144.99;75.92;52391.03;5042699;28;19924;-68
2023/03/28 10:00:29;;;;;;;;;;;;;;;-144.99;75.19;52431.78;5032459;28;19960;-69
2023/03/28 10:02:55;;;;;;;;;;;;;;;-144.99;74.70;52391.03;5028093;28;19990;-67
2023/03/28 10:05:30;;;;;;;;;;;;;;;-144.99;74.44;52437.91;5038865;28;19936;-66
2023/03/28 10:07:58;;;;;;;;;;;;;;;-144.99;74.20;52403.25;5047784;28;19925;-67
2023/03/28 10:10:25;;;;;;;;;;;;;;;-144.99;73.75;52366.56;5034926;28;20010;-70
2023/03/28 10:12:56;;;;;;;;;;;;;;;-144.99;73.64;52370.63;5040356;28;19939;-67
2023/03/28 10:15:46;;;;;;;;;;;;;;;-144.99;73.54;52427.72;5036472;28;19972;-66
2023/03/28 10:18:16;;;;;;;;;;;;;;;-144.99;73.64;52384.91;5017303;28;20087;-68
2023/03/28 10:20:44;;;;;;;;;;;;;;;-144.99;73.66;52399.19;5033523;28;19936;-66
2023/03/28 10:23:12;;;;;;;;;;;;;;;-144.99;73.76;52403.25;5028201;28;20419;-68
2023/03/28 10:25:39;;;;;;;;;;;;;;;-144.99;73.17;52374.72;5038633;28;19932;-67
2023/03/28 10:28:07;;;;;;;;;;;;;;;-144.99;73.00;52395.09;5033872;28;20393;-66
2023/03/28 10:30:35;;;;;;;;;;;;;;;-144.99;72.79;52370.63;5035488;28;20344;-65
2023/03/28 10:33:09;;;;;;;;;;;;;;;-144.99;71.48;52362.50;5032810;28;19936;-68
2023/03/28 10:35:40;;;;;;;;;;;;;;;-144.99;70.34;52331.91;5035968;28;19925;-65
2023/03/28 10:38:14;;;;;;;;;;;;;;;-144.99;70.21;52362.50;5039568;28;20043;-67
2023/03/28 10:40:40;;;;;;;;;;;;;;;-144.99;69.08;52360.44;5041318;28;19933;-66
2023/03/28 10:43:11;;;;;;;;;;;;;;;-144.99;67.34;52244.28;5034668;28;19961;-67
2023/03/28 10:45:39;;;;;;;;;;;;;;;-144.99;65.47;52160.72;5039626;28;19929;-67
2023/03/28 10:48:11;;;;;;;;;;;;;;;-144.99;63.92;52158.66;5036277;28;20026;-67
2023/03/28 10:50:42;;;;;;;;;;;;;;;-144.99;61.82;52183.13;5036046;28;20378;-67
2023/03/28 10:53:20;;;;;;;;;;;;;;;-144.99;61.95;52179.06;5042184;28;19929;-67
2023/03/28 10:55:54;;;;;;;;;;;;;;;-144.99;61.67;52166.81;5039788;28;19929;-66
2023/03/28 10:58:26;;;;;;;;;;;;;;;-144.99;61.32;52223.88;5040941;28;20394;-68
2023/03/28 11:00:58;;;;;;;;;;;;;;;-144.99;61.30;52174.97;5038268;28;19995;-67
2023/03/28 11:03:32;;;;;;;;;;;;;;;-144.99;61.56;52268.72;5042935;28;19929;-67
2023/03/28 11:06:02;;;;;;;;;;;;;;;-144.99;61.78;52248.34;5030390;28;20150;-68
2023/03/28 11:08:43;;;;;;;;;;;;;;;-144.99;62.38;52207.59;5044613;28;20029;-67
2023/03/28 11:11:17;;;;;;;;;;;;;;;-144.99;62.71;52333.94;5034464;28;20372;-67
2023/03/28 11:13:49;;;;;;;;;;;;;;;-144.99;63.23;52256.50;5029280;28;20444;-67
2023/03/28 11:16:21;;;;;;;;;;;;;;;-144.99;63.03;52280.97;5035396;28;19971;-67
2023/03/28 11:18:54;;;;;;;;;;;;;;;-144.99;62.77;52297.25;5046163;28;19972;-67
2023/03/28 11:21:26;;;;;;;;;;;;;;;-144.99;63.26;52325.81;5038581;28;20335;-68
2023/03/28 11:23:56;;;;;;;;;;;;;;;-144.99;63.20;52354.34;5044397;28;20081;-68
2023/03/28 11:26:25;;;;;;;;;;;;;;;-144.99;64.81;52386.94;5041001;28;20023;-67
2023/03/28 11:29:00;;;;;;;;;;;;;;;-144.99;66.11;52444.03;5045014;28;19951;-67
2023/03/28 11:31:30;;;;;;;;;;;;;;;-144.99;67.39;52417.53;5028440;28;19998;-68
2023/03/28 11:34:01;;;;;;;;;;;;;;;-144.99;67.92;52452.16;5042852;28;19982;-67
2023/03/28 11:36:32;;;;;;;;;;;;;;;-144.99;69.09;52448.09;5037143;28;19983;-67
2023/03/28 11:39:02;;;;;;;;;;;;;;;-144.99;69.29;52441.97;5039328;28;19933;-68
2023/03/28 11:41:31;;;;;;;;;;;;;;;-144.99;69.91;52403.25;5040245;28;20468;-70
2023/03/28 11:44:00;;;;;;;;;;;;;;;-144.99;69.84;52423.63;5040769;28;20004;-68
2023/03/28 11:46:28;;;;;;;;;;;;;;;-144.99;69.73;52448.09;5036426;28;19933;-68
2023/03/28 11:49:01;;;;;;;;;;;;;;;-144.99;69.97;52433.81;5027715;28;19951;-68
2023/03/28 11:51:31;;;;;;;;;;;;;;;-144.99;70.71;52484.78;5042445;28;20037;-68
2023/03/28 11:54:00;;;;;;;;;;;;;;;-144.99;70.42;52448.09;5046345;28;19944;-68
2023/03/28 11:56:31;;;;;;;;;;;;;;;-144.99;73.84;52439.94;5039524;28;19994;-67
2023/03/28 11:59:02;;;;;;;;;;;;;;;-144.99;75.21;52466.44;5029074;28;19955;-67
2023/03/28 12:01:30;;;;;;;;;;;;;;;-144.99;76.08;52472.56;5044079;28;19929;-68
2023/03/28 12:04:02;;;;;;;;;;;;;;;-144.99;77.14;52452.16;5037711;28;19944;-66
2023/03/28 12:06:32;;;;;;;;;;;;;;;-144.99;78.20;52448.09;5033457;28;19987;-67
2023/03/28 12:09:03;;;;;;;;;;;;;;;-144.99;79.92;52427.72;5035027;28;19933;-67
2023/03/28 12:11:33;;;;;;;;;;;;;;;-144.99;79.51;52501.09;5035932;28;19964;-65
2023/03/28 12:14:01;;;;;;;;;;;;;;;-144.99;80.60;52450.13;5027304;28;19955;-66
2023/03/28 12:16:31;;;;;;;;;;;;;;;-144.99;79.32;52452.16;5039430;28;19932;-67
2023/03/28 12:19:00;;;;;;;;;;;;;;;-144.99;80.03;52464.41;5043743;28;19932;-65
2023/03/28 12:21:32;;;;;;;;;;;;;;;-144.99;78.90;52492.94;5042274;28;19925;-67
2023/03/28 12:24:04;;;;;;;;;;;;;;;-144.99;78.80;52419.56;5042798;28;19972;-66
2023/03/28 12:26:36;;;;;;;;;;;;;;;-144.99;78.74;52472.56;5041548;28;19933;-66
2023/03/28 12:29:07;;;;;;;;;;;;;;;-144.99;78.98;52393.06;5034623;28;19930;-66
2023/03/28 12:31:41;;;;;;;;;;;;;;;-144.99;76.95;52409.38;5033890;28;19928;-65
2023/03/28 12:34:11;;;;;;;;;;;;;;;-144.99;76.86;52423.63;5044163;28;19944;-66